• Join FlightAware (Why Join?)
  • Login
  • US Flag 
04:25AM EDT


 

Airport Tracker/Info


-or-


 

Live Flight TrackerFlight Track Log ✈ SKW2632 ✈ 17-Jun-2013 ✈ KLAX - KPHX

Flight Track Log - Related Links

Times and Time Zones

All times are in EDT time to prevent confusion due to time zone crossing. See the SKW2632 flight status page for this flight to view local times or setup timezone preferences in your user account.

Time Position Orientation Groundspeed Altitude Reporting Facility
EDT Latitude Longitude Course Direction KTS MPH feet Rate Location/Type
07:13PM 33.9339 -118.4383 233° Southwest 191 220 1,600  Level Los Angeles Center
07:14PM 33.8897 -118.5097 233° Southwest 235 270 4,600 2,280 Climbing Los Angeles Center
07:15PM 33.8169 -118.5181 185° South 272 313 6,400 1,980 Climbing Los Angeles Center
07:16PM 33.7369 -118.5211 182° South 291 335 8,700 1,920 Climbing Los Angeles Center
07:17PM 33.6656 -118.4767 153° Southeast 302 348 10,400 1,260 Climbing Los Angeles Center
07:18PM 33.6164 -118.3903 124° Southeast 331 381 11,400 1,260 Climbing Los Angeles Center
07:19PM 33.6158 -118.2519 90° East 350 403 13,000 1,500 Climbing Los Angeles Center
07:20PM 33.6192 -118.1325 88° East 361 415 14,600 1,380 Climbing Los Angeles Center
07:21PM 33.6194 -118.0089 90° East 371 427 15,900 1,080 Climbing Los Angeles Center
07:22PM 33.6203 -117.8800 90° East 385 443 16,900 1,020 Climbing Los Angeles Center
07:23PM 33.6233 -117.7489 88° East 393 452 18,100 1,140 Climbing Los Angeles Center
07:24PM 33.6253 -117.5869 89° East 404 465 19,300 1,140 Climbing Los Angeles Center
07:25PM 33.6264 -117.4489 89° East 412 474 20,500 1,020 Climbing Los Angeles Center
07:26PM 33.6283 -117.3083 89° East 418 481 21,500 840 Climbing Los Angeles Center
07:27PM 33.6281 -117.1686 90° East 422 486 22,300 780 Climbing Los Angeles Center
07:28PM 33.6264 -117.0256 91° East 428 493 23,200 720 Climbing Los Angeles Center
07:29PM 33.6275 -116.8806 89° East 435 501 23,800 600 Climbing Los Angeles Center
07:30PM 33.6281 -116.7269 90° East 440 506 24,500 600 Climbing Los Angeles Center
07:31PM 33.6278 -116.5786 90° East 443 510 25,100 600 Climbing Los Angeles Center
07:32PM 33.6286 -116.3975 90° East 450 518 25,800 600 Climbing Los Angeles Center
07:33PM 33.6283 -116.2467 90° East 450 518 26,400 660 Climbing Los Angeles Center
07:34PM 33.6258 -116.0933 91° East 457 526 27,200 720 Climbing Los Angeles Center
07:35PM 33.6222 -115.9439 92° East 449 517 27,900 600 Climbing Los Angeles Center
07:36PM 33.6200 -115.7939 91° East 446 513 28,500 540 Climbing Los Angeles Center
07:37PM 33.6161 -115.6417 92° East 453 521 29,100 540 Climbing Los Angeles Center
07:38PM 33.6119 -115.4878 92° East 462 532 29,700 540 Climbing Los Angeles Center
07:39PM 33.6092 -115.3356 91° East 459 528 30,300 660 Climbing Los Angeles Center
07:41PM 33.6050 -115.1519 92° East 459 528 31,100 600 Climbing Los Angeles Center
07:42PM 33.5994 -114.9994 92° East 458 527 31,600 480 Climbing Los Angeles Center
07:43PM 33.5961 -114.8456 91° East 462 532 32,100 60 Climbing Los Angeles Center
07:44PM 33.5811 -114.6908 97° East 466 536 31,800 -1,080 Descending Los Angeles Center
07:45PM 33.5483 -114.5272 103° East 501 577 30,000 -1,980 Descending Los Angeles Center
07:46PM 33.5150 -114.3600 103° East 515 593 27,800 -2,340 Descending Los Angeles Center
07:46PM 33.4956 -114.2400 101° East 506 582 26,000 -1,740 Descending Albuquerque Center
07:47PM 33.4647 -114.0858 103° East 484 557 24,900 -840 Descending Albuquerque Center
07:48PM 33.4344 -113.9450 104° East 447 514 24,300 -780 Descending Albuquerque Center
07:49PM 33.4081 -113.8050 103° East 434 499 23,400 -1,140 Descending Albuquerque Center
07:50PM 33.3792 -113.6639 104° East 435 501 22,000 -1,500 Descending Albuquerque Center
07:51PM 33.3453 -113.4989 104° East 429 494 20,400 -1,560 Descending Albuquerque Center
07:52PM 33.3181 -113.3675 104° East 414 476 18,900 -1,560 Descending Albuquerque Center
07:54PM 33.2917 -113.2397 104° East 401 461 17,300 -1,440 Descending Albuquerque Center
07:55PM 33.2750 -113.1161 99° East 383 441 16,000 -1,140 Descending Albuquerque Center
07:56PM 33.2761 -112.9925 89° East 373 429 15,000 -540 Descending Albuquerque Center
07:57PM 33.2794 -112.8739 88° East 362 417 15,000  Level Albuquerque Center
07:58PM 33.2817 -112.7578 89° East 353 406 15,000  Level Albuquerque Center
07:59PM 33.2831 -112.6467 89° East 340 391 15,000 -840 Level Albuquerque Center
08:00PM 33.2867 -112.5306 88° East 337 388 13,300 -1,680 Descending Albuquerque Center
08:01PM 33.2903 -112.4236 88° East 326 375 11,600 -1,080 Descending Albuquerque Center
08:02PM 33.2931 -112.3231 88° East 307 353 11,100 -840 Descending Albuquerque Center
08:03PM 33.3022 -112.2036 85° East 303 349 9,900 -1,080 Descending Albuquerque Center
08:04PM 33.3103 -112.1061 84° East 296 341 9,000 -840 Descending Albuquerque Center
08:05PM 33.3289 -112.0239 75° East 259 298 8,200 -1,020 Descending Albuquerque Center
08:06PM 33.3458 -111.9425 76° East 253 291 7,000 -1,080 Descending Albuquerque Center
08:07PM 33.3444 -111.8608 91° East 246 283 6,000 -1,140 Descending Albuquerque Center
08:08PM 33.3747 -111.8028 58° Northeast 240 276 4,700 -1,200 Descending Albuquerque Center
08:09PM 33.4267 -111.8347 333° Northwest 234 269 3,600 -960 Descending Albuquerque Center
08:10PM 33.4281 -111.9044 271° West 203 234 2,800 -900 Descending Albuquerque Center
08:10PM 33.4333 -111.9333 282° West 174 200 2,500 -840 Descending Phoenix TRACON
08:12PM 33.4286 -112.0186 266° West 150 173 1,200 -780 Descending Albuquerque Center